sensor_id;sensor_type;location;lat;lon;timestamp;P1;durP1;ratioP1;P2;durP2;ratioP2
8397;SDS011;4236;54.504;9.588;2022-12-18T00:01:26;45.83;;;41.13;;
8397;SDS011;4236;54.504;9.588;2022-12-18T00:03:55;47.97;;;42.67;;
8397;SDS011;4236;54.504;9.588;2022-12-18T00:06:24;46.97;;;42.47;;
8397;SDS011;4236;54.504;9.588;2022-12-18T00:08:54;49.13;;;43.67;;
8397;SDS011;4236;54.504;9.588;2022-12-18T00:11:24;49.63;;;44.40;;
8397;SDS011;4236;54.504;9.588;2022-12-18T00:13:55;52.37;;;44.70;;
8397;SDS011;4236;54.504;9.588;2022-12-18T00:16:24;50.83;;;44.70;;
8397;SDS011;4236;54.504;9.588;2022-12-18T00:18:54;48.47;;;43.27;;
8397;SDS011;4236;54.504;9.588;2022-12-18T00:21:22;54.27;;;44.57;;
8397;SDS011;4236;54.504;9.588;2022-12-18T00:23:50;53.70;;;43.73;;
8397;SDS011;4236;54.504;9.588;2022-12-18T00:26:19;52.33;;;46.50;;
8397;SDS011;4236;54.504;9.588;2022-12-18T00:28:49;50.33;;;43.80;;
8397;SDS011;4236;54.504;9.588;2022-12-18T00:31:19;48.87;;;43.90;;
8397;SDS011;4236;54.504;9.588;2022-12-18T00:33:48;53.40;;;43.40;;
8397;SDS011;4236;54.504;9.588;2022-12-18T00:36:21;45.87;;;41.17;;
8397;SDS011;4236;54.504;9.588;2022-12-18T00:38:50;45.37;;;41.20;;
8397;SDS011;4236;54.504;9.588;2022-12-18T00:41:18;47.07;;;42.00;;
8397;SDS011;4236;54.504;9.588;2022-12-18T00:44:01;47.27;;;42.77;;
8397;SDS011;4236;54.504;9.588;2022-12-18T00:46:29;52.63;;;44.00;;
8397;SDS011;4236;54.504;9.588;2022-12-18T00:48:57;49.07;;;43.87;;
8397;SDS011;4236;54.504;9.588;2022-12-18T00:51:24;51.03;;;44.60;;
8397;SDS011;4236;54.504;9.588;2022-12-18T00:53:53;50.03;;;44.67;;
8397;SDS011;4236;54.504;9.588;2022-12-18T00:56:21;52.03;;;46.43;;
8397;SDS011;4236;54.504;9.588;2022-12-18T00:58:48;50.40;;;45.57;;
8397;SDS011;4236;54.504;9.588;2022-12-18T01:01:18;47.97;;;43.47;;
8397;SDS011;4236;54.504;9.588;2022-12-18T01:03:47;51.00;;;45.57;;
8397;SDS011;4236;54.504;9.588;2022-12-18T01:06:15;55.83;;;45.60;;
8397;SDS011;4236;54.504;9.588;2022-12-18T01:08:43;51.60;;;46.30;;
8397;SDS011;4236;54.504;9.588;2022-12-18T01:11:12;49.83;;;43.53;;
8397;SDS011;4236;54.504;9.588;2022-12-18T01:13:42;51.07;;;45.83;;
8397;SDS011;4236;54.504;9.588;2022-12-18T01:16:11;48.40;;;44.07;;
8397;SDS011;4236;54.504;9.588;2022-12-18T01:18:40;50.77;;;45.47;;
8397;SDS011;4236;54.504;9.588;2022-12-18T01:21:08;52.77;;;46.00;;
8397;SDS011;4236;54.504;9.588;2022-12-18T01:23:37;50.60;;;45.30;;
8397;SDS011;4236;54.504;9.588;2022-12-18T01:26:06;50.30;;;45.23;;
8397;SDS011;4236;54.504;9.588;2022-12-18T01:28:35;49.07;;;44.23;;
8397;SDS011;4236;54.504;9.588;2022-12-18T01:31:11;50.87;;;45.87;;
8397;SDS011;4236;54.504;9.588;2022-12-18T01:33:41;49.90;;;44.43;;
8397;SDS011;4236;54.504;9.588;2022-12-18T01:36:14;52.47;;;45.10;;
8397;SDS011;4236;54.504;9.588;2022-12-18T01:38:43;50.00;;;45.13;;
8397;SDS011;4236;54.504;9.588;2022-12-18T01:41:11;53.23;;;45.20;;
8397;SDS011;4236;54.504;9.588;2022-12-18T01:43:43;48.20;;;43.23;;
8397;SDS011;4236;54.504;9.588;2022-12-18T01:46:12;52.03;;;46.47;;
8397;SDS011;4236;54.504;9.588;2022-12-18T01:48:40;50.27;;;45.33;;
8397;SDS011;4236;54.504;9.588;2022-12-18T01:51:09;54.63;;;46.73;;
8397;SDS011;4236;54.504;9.588;2022-12-18T01:53:39;50.10;;;44.40;;
8397;SDS011;4236;54.504;9.588;2022-12-18T01:56:11;49.60;;;44.30;;
8397;SDS011;4236;54.504;9.588;2022-12-18T01:58:41;48.80;;;43.73;;
8397;SDS011;4236;54.504;9.588;2022-12-18T02:01:15;48.93;;;43.77;;
8397;SDS011;4236;54.504;9.588;2022-12-18T02:03:45;50.50;;;45.67;;
8397;SDS011;4236;54.504;9.588;2022-12-18T02:06:15;48.43;;;43.53;;
8397;SDS011;4236;54.504;9.588;2022-12-18T02:08:51;51.60;;;45.43;;
8397;SDS011;4236;54.504;9.588;2022-12-18T02:11:32;47.73;;;42.73;;
8397;SDS011;4236;54.504;9.588;2022-12-18T02:14:11;47.00;;;42.77;;
8397;SDS011;4236;54.504;9.588;2022-12-18T02:16:46;49.43;;;44.53;;
8397;SDS011;4236;54.504;9.588;2022-12-18T02:22:18;47.83;;;42.70;;
8397;SDS011;4236;54.504;9.588;2022-12-18T02:24:57;48.17;;;43.30;;
8397;SDS011;4236;54.504;9.588;2022-12-18T02:27:33;55.17;;;44.63;;
8397;SDS011;4236;54.504;9.588;2022-12-18T02:30:05;46.43;;;41.90;;
8397;SDS011;4236;54.504;9.588;2022-12-18T02:32:35;49.63;;;44.30;;
8397;SDS011;4236;54.504;9.588;2022-12-18T02:35:08;51.40;;;46.40;;
8397;SDS011;4236;54.504;9.588;2022-12-18T02:37:39;49.10;;;44.50;;
8397;SDS011;4236;54.504;9.588;2022-12-18T02:40:10;49.83;;;44.47;;
8397;SDS011;4236;54.504;9.588;2022-12-18T02:42:42;47.57;;;42.97;;
8397;SDS011;4236;54.504;9.588;2022-12-18T02:45:10;48.73;;;43.47;;
8397;SDS011;4236;54.504;9.588;2022-12-18T02:47:39;50.47;;;45.00;;
8397;SDS011;4236;54.504;9.588;2022-12-18T02:50:10;51.30;;;46.10;;
8397;SDS011;4236;54.504;9.588;2022-12-18T02:52:46;48.20;;;42.43;;
8397;SDS011;4236;54.504;9.588;2022-12-18T02:55:23;47.80;;;43.00;;
8397;SDS011;4236;54.504;9.588;2022-12-18T02:58:01;49.73;;;44.60;;
8397;SDS011;4236;54.504;9.588;2022-12-18T03:00:33;49.13;;;44.20;;
8397;SDS011;4236;54.504;9.588;2022-12-18T03:03:06;48.23;;;42.57;;
8397;SDS011;4236;54.504;9.588;2022-12-18T03:05:40;47.23;;;42.30;;
8397;SDS011;4236;54.504;9.588;2022-12-18T03:08:12;46.97;;;42.10;;
8397;SDS011;4236;54.504;9.588;2022-12-18T03:10:45;46.13;;;41.63;;
8397;SDS011;4236;54.504;9.588;2022-12-18T03:13:20;46.37;;;41.63;;
8397;SDS011;4236;54.504;9.588;2022-12-18T03:15:53;44.93;;;40.50;;
8397;SDS011;4236;54.504;9.588;2022-12-18T03:18:25;47.10;;;42.50;;
8397;SDS011;4236;54.504;9.588;2022-12-18T03:20:58;48.00;;;43.43;;
8397;SDS011;4236;54.504;9.588;2022-12-18T03:23:32;46.20;;;41.40;;
8397;SDS011;4236;54.504;9.588;2022-12-18T03:26:07;45.77;;;41.13;;
8397;SDS011;4236;54.504;9.588;2022-12-18T03:28:39;47.23;;;42.57;;
8397;SDS011;4236;54.504;9.588;2022-12-18T03:31:11;46.10;;;41.27;;
8397;SDS011;4236;54.504;9.588;2022-12-18T03:33:41;44.53;;;40.03;;
8397;SDS011;4236;54.504;9.588;2022-12-18T03:36:13;49.03;;;43.83;;
8397;SDS011;4236;54.504;9.588;2022-12-18T03:38:42;53.30;;;42.60;;
8397;SDS011;4236;54.504;9.588;2022-12-18T03:41:11;45.40;;;41.20;;
8397;SDS011;4236;54.504;9.588;2022-12-18T03:43:47;51.33;;;42.00;;
8397;SDS011;4236;54.504;9.588;2022-12-18T03:46:21;46.40;;;41.70;;
8397;SDS011;4236;54.504;9.588;2022-12-18T03:48:57;47.37;;;42.57;;
8397;SDS011;4236;54.504;9.588;2022-12-18T03:51:30;45.43;;;40.90;;
8397;SDS011;4236;54.504;9.588;2022-12-18T03:54:06;46.23;;;41.63;;
8397;SDS011;4236;54.504;9.588;2022-12-18T03:56:38;49.00;;;43.70;;
8397;SDS011;4236;54.504;9.588;2022-12-18T03:59:10;45.70;;;41.03;;
8397;SDS011;4236;54.504;9.588;2022-12-18T04:01:40;48.37;;;43.43;;
8397;SDS011;4236;54.504;9.588;2022-12-18T04:04:11;47.97;;;42.73;;
8397;SDS011;4236;54.504;9.588;2022-12-18T04:06:41;47.87;;;42.87;;
8397;SDS011;4236;54.504;9.588;2022-12-18T04:09:10;47.80;;;43.03;;
8397;SDS011;4236;54.504;9.588;2022-12-18T04:11:39;47.87;;;42.87;;
8397;SDS011;4236;54.504;9.588;2022-12-18T04:14:08;47.87;;;43.20;;
8397;SDS011;4236;54.504;9.588;2022-12-18T04:16:44;46.23;;;41.93;;
8397;SDS011;4236;54.504;9.588;2022-12-18T04:19:11;51.03;;;45.57;;
8397;SDS011;4236;54.504;9.588;2022-12-18T04:21:39;45.13;;;40.93;;
8397;SDS011;4236;54.504;9.588;2022-12-18T04:24:07;47.43;;;42.53;;
8397;SDS011;4236;54.504;9.588;2022-12-18T04:26:35;45.30;;;41.00;;
8397;SDS011;4236;54.504;9.588;2022-12-18T04:29:02;44.80;;;40.03;;
8397;SDS011;4236;54.504;9.588;2022-12-18T04:31:30;45.73;;;41.03;;
8397;SDS011;4236;54.504;9.588;2022-12-18T04:33:59;48.77;;;43.77;;
8397;SDS011;4236;54.504;9.588;2022-12-18T04:36:28;47.73;;;43.00;;
8397;SDS011;4236;54.504;9.588;2022-12-18T04:38:55;47.93;;;42.90;;
8397;SDS011;4236;54.504;9.588;2022-12-18T04:41:23;47.83;;;43.20;;
8397;SDS011;4236;54.504;9.588;2022-12-18T04:43:51;48.20;;;43.83;;
8397;SDS011;4236;54.504;9.588;2022-12-18T04:46:18;46.37;;;42.17;;
8397;SDS011;4236;54.504;9.588;2022-12-18T04:48:46;46.70;;;42.20;;
8397;SDS011;4236;54.504;9.588;2022-12-18T04:51:15;46.97;;;42.47;;
8397;SDS011;4236;54.504;9.588;2022-12-18T04:53:51;46.13;;;41.60;;
8397;SDS011;4236;54.504;9.588;2022-12-18T04:56:19;46.40;;;41.73;;
8397;SDS011;4236;54.504;9.588;2022-12-18T04:58:47;46.23;;;41.23;;
8397;SDS011;4236;54.504;9.588;2022-12-18T05:01:15;48.23;;;43.27;;
8397;SDS011;4236;54.504;9.588;2022-12-18T05:03:44;48.63;;;43.60;;
8397;SDS011;4236;54.504;9.588;2022-12-18T05:06:12;47.20;;;41.30;;
8397;SDS011;4236;54.504;9.588;2022-12-18T05:08:41;46.27;;;41.30;;
8397;SDS011;4236;54.504;9.588;2022-12-18T05:11:12;45.23;;;41.10;;
8397;SDS011;4236;54.504;9.588;2022-12-18T05:13:42;43.03;;;39.07;;
8397;SDS011;4236;54.504;9.588;2022-12-18T05:16:10;45.03;;;40.90;;
8397;SDS011;4236;54.504;9.588;2022-12-18T05:18:38;48.50;;;43.17;;
8397;SDS011;4236;54.504;9.588;2022-12-18T05:21:05;50.47;;;44.33;;
8397;SDS011;4236;54.504;9.588;2022-12-18T05:23:33;44.83;;;40.53;;
8397;SDS011;4236;54.504;9.588;2022-12-18T05:26:04;52.30;;;44.70;;
8397;SDS011;4236;54.504;9.588;2022-12-18T05:28:34;47.67;;;42.53;;
8397;SDS011;4236;54.504;9.588;2022-12-18T05:31:03;47.37;;;42.20;;
8397;SDS011;4236;54.504;9.588;2022-12-18T05:33:32;46.53;;;41.83;;
8397;SDS011;4236;54.504;9.588;2022-12-18T05:36:02;46.93;;;42.20;;
8397;SDS011;4236;54.504;9.588;2022-12-18T05:38:32;46.17;;;41.73;;
8397;SDS011;4236;54.504;9.588;2022-12-18T05:41:03;48.93;;;43.60;;
8397;SDS011;4236;54.504;9.588;2022-12-18T05:43:31;45.53;;;41.10;;
8397;SDS011;4236;54.504;9.588;2022-12-18T05:46:03;51.27;;;43.27;;
8397;SDS011;4236;54.504;9.588;2022-12-18T05:48:31;46.63;;;42.20;;
8397;SDS011;4236;54.504;9.588;2022-12-18T05:51:02;46.80;;;42.60;;
8397;SDS011;4236;54.504;9.588;2022-12-18T05:53:32;54.43;;;44.83;;
8397;SDS011;4236;54.504;9.588;2022-12-18T05:56:00;47.07;;;42.73;;
8397;SDS011;4236;54.504;9.588;2022-12-18T05:58:30;48.57;;;43.47;;
8397;SDS011;4236;54.504;9.588;2022-12-18T06:01:05;48.63;;;43.43;;
8397;SDS011;4236;54.504;9.588;2022-12-18T06:03:34;45.90;;;41.50;;
8397;SDS011;4236;54.504;9.588;2022-12-18T06:06:02;49.60;;;44.67;;
8397;SDS011;4236;54.504;9.588;2022-12-18T06:08:30;46.60;;;41.77;;
8397;SDS011;4236;54.504;9.588;2022-12-18T06:10:57;48.83;;;43.90;;
8397;SDS011;4236;54.504;9.588;2022-12-18T06:13:25;48.10;;;42.97;;
8397;SDS011;4236;54.504;9.588;2022-12-18T06:15:54;47.03;;;42.20;;
8397;SDS011;4236;54.504;9.588;2022-12-18T06:18:21;50.07;;;43.30;;
8397;SDS011;4236;54.504;9.588;2022-12-18T06:20:54;49.27;;;44.20;;
8397;SDS011;4236;54.504;9.588;2022-12-18T06:23:22;46.70;;;42.30;;
8397;SDS011;4236;54.504;9.588;2022-12-18T06:25:50;48.90;;;43.97;;
8397;SDS011;4236;54.504;9.588;2022-12-18T06:28:18;45.37;;;40.90;;
8397;SDS011;4236;54.504;9.588;2022-12-18T06:30:46;47.70;;;42.87;;
8397;SDS011;4236;54.504;9.588;2022-12-18T06:33:16;45.93;;;41.67;;
8397;SDS011;4236;54.504;9.588;2022-12-18T06:35:44;43.23;;;39.10;;
8397;SDS011;4236;54.504;9.588;2022-12-18T06:38:12;43.67;;;39.37;;
8397;SDS011;4236;54.504;9.588;2022-12-18T06:40:39;47.20;;;42.60;;
8397;SDS011;4236;54.504;9.588;2022-12-18T06:43:07;45.43;;;41.30;;
8397;SDS011;4236;54.504;9.588;2022-12-18T06:45:34;44.57;;;40.37;;
8397;SDS011;4236;54.504;9.588;2022-12-18T06:48:02;46.20;;;41.53;;
8397;SDS011;4236;54.504;9.588;2022-12-18T06:50:31;45.17;;;40.97;;
8397;SDS011;4236;54.504;9.588;2022-12-18T06:52:59;46.57;;;42.17;;
8397;SDS011;4236;54.504;9.588;2022-12-18T06:55:27;45.77;;;41.30;;
8397;SDS011;4236;54.504;9.588;2022-12-18T06:57:55;46.30;;;41.90;;
8397;SDS011;4236;54.504;9.588;2022-12-18T07:00:23;45.90;;;41.00;;
8397;SDS011;4236;54.504;9.588;2022-12-18T07:02:51;45.77;;;41.20;;
8397;SDS011;4236;54.504;9.588;2022-12-18T07:05:18;46.17;;;41.70;;
8397;SDS011;4236;54.504;9.588;2022-12-18T07:07:48;46.27;;;42.03;;
8397;SDS011;4236;54.504;9.588;2022-12-18T07:10:15;44.97;;;40.87;;
8397;SDS011;4236;54.504;9.588;2022-12-18T07:12:43;42.83;;;39.43;;
8397;SDS011;4236;54.504;9.588;2022-12-18T07:15:11;45.63;;;41.03;;
8397;SDS011;4236;54.504;9.588;2022-12-18T07:17:39;44.83;;;40.73;;
8397;SDS011;4236;54.504;9.588;2022-12-18T07:20:07;45.87;;;41.20;;
8397;SDS011;4236;54.504;9.588;2022-12-18T07:22:35;46.90;;;42.77;;
8397;SDS011;4236;54.504;9.588;2022-12-18T07:25:06;45.53;;;41.37;;
8397;SDS011;4236;54.504;9.588;2022-12-18T07:27:34;45.93;;;41.63;;
8397;SDS011;4236;54.504;9.588;2022-12-18T07:30:02;42.60;;;39.23;;
8397;SDS011;4236;54.504;9.588;2022-12-18T07:32:31;46.23;;;41.93;;
8397;SDS011;4236;54.504;9.588;2022-12-18T07:34:59;44.20;;;40.30;;
8397;SDS011;4236;54.504;9.588;2022-12-18T07:37:26;44.83;;;40.70;;
8397;SDS011;4236;54.504;9.588;2022-12-18T07:39:54;41.20;;;37.80;;
8397;SDS011;4236;54.504;9.588;2022-12-18T07:42:23;43.13;;;39.30;;
8397;SDS011;4236;54.504;9.588;2022-12-18T07:45:01;44.70;;;40.57;;
8397;SDS011;4236;54.504;9.588;2022-12-18T07:47:33;42.50;;;38.80;;
8397;SDS011;4236;54.504;9.588;2022-12-18T07:50:02;44.90;;;40.57;;
8397;SDS011;4236;54.504;9.588;2022-12-18T07:52:30;48.10;;;43.50;;
8397;SDS011;4236;54.504;9.588;2022-12-18T07:54:58;44.70;;;40.90;;
8397;SDS011;4236;54.504;9.588;2022-12-18T07:57:27;42.63;;;38.57;;
8397;SDS011;4236;54.504;9.588;2022-12-18T08:00:15;41.17;;;37.63;;
8397;SDS011;4236;54.504;9.588;2022-12-18T08:02:43;42.00;;;38.60;;
8397;SDS011;4236;54.504;9.588;2022-12-18T08:05:11;38.53;;;35.53;;
8397;SDS011;4236;54.504;9.588;2022-12-18T08:07:39;40.70;;;37.40;;
8397;SDS011;4236;54.504;9.588;2022-12-18T08:10:07;39.20;;;35.90;;
8397;SDS011;4236;54.504;9.588;2022-12-18T08:12:36;39.23;;;36.23;;
8397;SDS011;4236;54.504;9.588;2022-12-18T08:15:05;38.40;;;35.20;;
8397;SDS011;4236;54.504;9.588;2022-12-18T08:17:33;39.97;;;36.70;;
8397;SDS011;4236;54.504;9.588;2022-12-18T08:20:01;40.70;;;36.60;;
8397;SDS011;4236;54.504;9.588;2022-12-18T08:22:29;38.53;;;35.50;;
8397;SDS011;4236;54.504;9.588;2022-12-18T08:24:56;37.53;;;34.67;;
8397;SDS011;4236;54.504;9.588;2022-12-18T08:27:24;38.17;;;35.27;;
8397;SDS011;4236;54.504;9.588;2022-12-18T08:29:56;35.93;;;33.23;;
8397;SDS011;4236;54.504;9.588;2022-12-18T08:32:25;37.97;;;34.97;;
8397;SDS011;4236;54.504;9.588;2022-12-18T08:34:53;38.10;;;35.00;;
8397;SDS011;4236;54.504;9.588;2022-12-18T08:37:21;37.07;;;34.17;;
8397;SDS011;4236;54.504;9.588;2022-12-18T08:39:49;35.97;;;33.17;;
8397;SDS011;4236;54.504;9.588;2022-12-18T08:42:16;36.27;;;33.60;;
8397;SDS011;4236;54.504;9.588;2022-12-18T08:45:03;36.60;;;33.80;;
8397;SDS011;4236;54.504;9.588;2022-12-18T08:47:31;37.70;;;34.90;;
8397;SDS011;4236;54.504;9.588;2022-12-18T08:49:58;36.00;;;33.27;;
8397;SDS011;4236;54.504;9.588;2022-12-18T08:52:26;36.50;;;33.83;;
8397;SDS011;4236;54.504;9.588;2022-12-18T08:54:54;34.77;;;32.03;;
8397;SDS011;4236;54.504;9.588;2022-12-18T08:57:21;37.10;;;34.07;;
8397;SDS011;4236;54.504;9.588;2022-12-18T08:59:49;36.33;;;33.63;;
8397;SDS011;4236;54.504;9.588;2022-12-18T09:02:18;37.37;;;34.47;;
8397;SDS011;4236;54.504;9.588;2022-12-18T09:04:46;34.00;;;31.37;;
8397;SDS011;4236;54.504;9.588;2022-12-18T09:07:22;34.17;;;31.73;;
8397;SDS011;4236;54.504;9.588;2022-12-18T09:09:50;33.00;;;30.80;;
8397;SDS011;4236;54.504;9.588;2022-12-18T09:12:17;33.80;;;31.50;;
8397;SDS011;4236;54.504;9.588;2022-12-18T09:14:46;36.70;;;33.90;;
8397;SDS011;4236;54.504;9.588;2022-12-18T09:17:14;34.53;;;32.23;;
8397;SDS011;4236;54.504;9.588;2022-12-18T09:19:43;33.43;;;30.80;;
8397;SDS011;4236;54.504;9.588;2022-12-18T09:22:10;34.00;;;31.80;;
8397;SDS011;4236;54.504;9.588;2022-12-18T09:24:38;33.80;;;31.20;;
8397;SDS011;4236;54.504;9.588;2022-12-18T09:27:06;34.93;;;32.33;;
8397;SDS011;4236;54.504;9.588;2022-12-18T09:29:34;34.73;;;32.23;;
8397;SDS011;4236;54.504;9.588;2022-12-18T09:32:02;36.97;;;33.97;;
8397;SDS011;4236;54.504;9.588;2022-12-18T09:34:29;33.97;;;31.80;;
8397;SDS011;4236;54.504;9.588;2022-12-18T09:36:58;35.60;;;33.33;;
8397;SDS011;4236;54.504;9.588;2022-12-18T09:39:26;33.90;;;31.80;;
8397;SDS011;4236;54.504;9.588;2022-12-18T09:41:54;33.37;;;31.13;;
8397;SDS011;4236;54.504;9.588;2022-12-18T09:44:25;34.20;;;31.90;;
8397;SDS011;4236;54.504;9.588;2022-12-18T09:47:09;33.20;;;31.00;;
8397;SDS011;4236;54.504;9.588;2022-12-18T09:49:40;33.90;;;31.30;;
8397;SDS011;4236;54.504;9.588;2022-12-18T09:52:13;32.27;;;30.30;;
8397;SDS011;4236;54.504;9.588;2022-12-18T09:54:46;33.93;;;31.53;;
8397;SDS011;4236;54.504;9.588;2022-12-18T09:57:19;33.63;;;31.17;;
8397;SDS011;4236;54.504;9.588;2022-12-18T09:59:49;32.97;;;30.33;;
8397;SDS011;4236;54.504;9.588;2022-12-18T10:02:22;33.70;;;31.20;;
8397;SDS011;4236;54.504;9.588;2022-12-18T10:04:59;34.23;;;31.83;;
8397;SDS011;4236;54.504;9.588;2022-12-18T10:07:36;33.10;;;31.00;;
8397;SDS011;4236;54.504;9.588;2022-12-18T10:10:16;31.57;;;29.43;;
8397;SDS011;4236;54.504;9.588;2022-12-18T10:12:55;34.50;;;32.20;;
8397;SDS011;4236;54.504;9.588;2022-12-18T10:15:31;34.03;;;31.80;;
8397;SDS011;4236;54.504;9.588;2022-12-18T10:18:06;32.67;;;30.47;;
8397;SDS011;4236;54.504;9.588;2022-12-18T10:20:47;32.90;;;30.30;;
8397;SDS011;4236;54.504;9.588;2022-12-18T10:23:20;33.90;;;31.70;;
8397;SDS011;4236;54.504;9.588;2022-12-18T10:25:55;33.50;;;31.30;;
8397;SDS011;4236;54.504;9.588;2022-12-18T10:28:29;33.10;;;30.67;;
8397;SDS011;4236;54.504;9.588;2022-12-18T10:30:57;32.13;;;29.97;;
8397;SDS011;4236;54.504;9.588;2022-12-18T10:33:28;32.07;;;30.27;;
8397;SDS011;4236;54.504;9.588;2022-12-18T10:35:58;33.73;;;31.27;;
8397;SDS011;4236;54.504;9.588;2022-12-18T10:38:28;32.17;;;30.23;;
8397;SDS011;4236;54.504;9.588;2022-12-18T10:40:57;32.73;;;30.47;;
8397;SDS011;4236;54.504;9.588;2022-12-18T10:43:26;31.23;;;29.23;;
8397;SDS011;4236;54.504;9.588;2022-12-18T10:46:08;31.77;;;29.80;;
8397;SDS011;4236;54.504;9.588;2022-12-18T10:48:48;31.57;;;29.67;;
8397;SDS011;4236;54.504;9.588;2022-12-18T10:51:21;30.87;;;28.90;;
8397;SDS011;4236;54.504;9.588;2022-12-18T10:53:56;31.43;;;29.60;;
8397;SDS011;4236;54.504;9.588;2022-12-18T10:56:28;30.67;;;28.90;;
8397;SDS011;4236;54.504;9.588;2022-12-18T10:58:58;29.30;;;27.57;;
8397;SDS011;4236;54.504;9.588;2022-12-18T11:01:31;30.23;;;28.43;;
8397;SDS011;4236;54.504;9.588;2022-12-18T11:04:16;31.57;;;29.43;;
8397;SDS011;4236;54.504;9.588;2022-12-18T11:06:53;30.87;;;28.97;;
8397;SDS011;4236;54.504;9.588;2022-12-18T11:09:24;31.17;;;29.17;;
8397;SDS011;4236;54.504;9.588;2022-12-18T11:11:54;31.87;;;29.97;;
8397;SDS011;4236;54.504;9.588;2022-12-18T11:14:24;30.10;;;28.30;;
8397;SDS011;4236;54.504;9.588;2022-12-18T11:16:54;32.20;;;30.17;;
8397;SDS011;4236;54.504;9.588;2022-12-18T11:19:43;33.40;;;31.40;;
8397;SDS011;4236;54.504;9.588;2022-12-18T11:22:18;31.80;;;29.90;;
8397;SDS011;4236;54.504;9.588;2022-12-18T11:24:53;30.60;;;28.90;;
8397;SDS011;4236;54.504;9.588;2022-12-18T11:27:47;31.30;;;29.50;;
8397;SDS011;4236;54.504;9.588;2022-12-18T11:30:20;32.97;;;30.87;;
8397;SDS011;4236;54.504;9.588;2022-12-18T11:32:50;31.47;;;29.70;;
8397;SDS011;4236;54.504;9.588;2022-12-18T11:35:25;30.17;;;28.57;;
8397;SDS011;4236;54.504;9.588;2022-12-18T11:38:02;31.43;;;29.23;;
8397;SDS011;4236;54.504;9.588;2022-12-18T11:40:40;31.30;;;29.30;;
8397;SDS011;4236;54.504;9.588;2022-12-18T11:43:13;31.83;;;29.63;;
8397;SDS011;4236;54.504;9.588;2022-12-18T11:45:46;32.90;;;30.80;;
8397;SDS011;4236;54.504;9.588;2022-12-18T11:48:20;31.03;;;28.93;;
8397;SDS011;4236;54.504;9.588;2022-12-18T11:50:53;31.90;;;29.67;;
8397;SDS011;4236;54.504;9.588;2022-12-18T11:53:22;31.53;;;29.43;;
8397;SDS011;4236;54.504;9.588;2022-12-18T11:56:01;31.33;;;29.30;;
8397;SDS011;4236;54.504;9.588;2022-12-18T11:58:42;31.13;;;29.37;;
8397;SDS011;4236;54.504;9.588;2022-12-18T12:01:21;30.33;;;28.43;;
8397;SDS011;4236;54.504;9.588;2022-12-18T12:04:15;30.50;;;28.37;;
8397;SDS011;4236;54.504;9.588;2022-12-18T12:07:03;29.83;;;27.83;;
8397;SDS011;4236;54.504;9.588;2022-12-18T12:09:44;30.17;;;28.17;;
8397;SDS011;4236;54.504;9.588;2022-12-18T12:12:26;31.27;;;28.97;;
8397;SDS011;4236;54.504;9.588;2022-12-18T12:15:17;31.50;;;29.10;;
8397;SDS011;4236;54.504;9.588;2022-12-18T12:17:54;31.10;;;28.90;;
8397;SDS011;4236;54.504;9.588;2022-12-18T12:20:38;32.20;;;29.93;;
8397;SDS011;4236;54.504;9.588;2022-12-18T12:23:16;28.60;;;26.53;;
8397;SDS011;4236;54.504;9.588;2022-12-18T12:25:55;29.47;;;27.47;;
8397;SDS011;4236;54.504;9.588;2022-12-18T12:28:31;30.90;;;28.60;;
8397;SDS011;4236;54.504;9.588;2022-12-18T12:31:20;31.40;;;28.97;;
8397;SDS011;4236;54.504;9.588;2022-12-18T12:33:56;30.63;;;28.27;;
8397;SDS011;4236;54.504;9.588;2022-12-18T12:36:34;31.67;;;29.10;;
8397;SDS011;4236;54.504;9.588;2022-12-18T12:39:10;31.27;;;29.07;;
8397;SDS011;4236;54.504;9.588;2022-12-18T12:41:42;30.87;;;28.50;;
8397;SDS011;4236;54.504;9.588;2022-12-18T12:44:32;30.60;;;28.50;;
8397;SDS011;4236;54.504;9.588;2022-12-18T12:47:07;29.13;;;27.33;;
8397;SDS011;4236;54.504;9.588;2022-12-18T12:49:45;27.90;;;26.20;;
8397;SDS011;4236;54.504;9.588;2022-12-18T12:52:17;28.97;;;27.27;;
8397;SDS011;4236;54.504;9.588;2022-12-18T12:54:52;29.57;;;27.10;;
8397;SDS011;4236;54.504;9.588;2022-12-18T12:57:21;31.63;;;29.37;;
8397;SDS011;4236;54.504;9.588;2022-12-18T13:00:00;31.43;;;29.03;;
8397;SDS011;4236;54.504;9.588;2022-12-18T13:02:30;31.43;;;29.20;;
8397;SDS011;4236;54.504;9.588;2022-12-18T13:05:04;30.27;;;27.80;;
8397;SDS011;4236;54.504;9.588;2022-12-18T13:07:39;30.83;;;28.70;;
8397;SDS011;4236;54.504;9.588;2022-12-18T13:10:26;28.47;;;26.57;;
8397;SDS011;4236;54.504;9.588;2022-12-18T13:13:00;29.00;;;27.00;;
8397;SDS011;4236;54.504;9.588;2022-12-18T13:15:35;30.70;;;28.53;;
8397;SDS011;4236;54.504;9.588;2022-12-18T13:18:15;31.00;;;28.63;;
8397;SDS011;4236;54.504;9.588;2022-12-18T13:20:47;30.73;;;28.73;;
8397;SDS011;4236;54.504;9.588;2022-12-18T13:23:28;29.17;;;26.97;;
8397;SDS011;4236;54.504;9.588;2022-12-18T13:25:58;29.83;;;27.93;;
8397;SDS011;4236;54.504;9.588;2022-12-18T13:34:20;29.00;;;26.90;;
8397;SDS011;4236;54.504;9.588;2022-12-18T13:36:54;28.03;;;26.20;;
8397;SDS011;4236;54.504;9.588;2022-12-18T13:39:24;29.20;;;27.00;;
8397;SDS011;4236;54.504;9.588;2022-12-18T13:45:35;37.60;;;34.40;;
8397;SDS011;4236;54.504;9.588;2022-12-18T13:48:12;35.63;;;33.03;;
8397;SDS011;4236;54.504;9.588;2022-12-18T13:50:49;30.33;;;28.03;;
8397;SDS011;4236;54.504;9.588;2022-12-18T13:53:23;31.33;;;29.03;;
8397;SDS011;4236;54.504;9.588;2022-12-18T13:55:54;30.97;;;28.87;;
8397;SDS011;4236;54.504;9.588;2022-12-18T13:58:23;32.40;;;30.27;;
8397;SDS011;4236;54.504;9.588;2022-12-18T14:00:51;31.50;;;29.27;;
8397;SDS011;4236;54.504;9.588;2022-12-18T14:03:20;32.77;;;30.57;;
8397;SDS011;4236;54.504;9.588;2022-12-18T14:05:55;34.57;;;31.67;;
8397;SDS011;4236;54.504;9.588;2022-12-18T14:08:27;32.23;;;30.00;;
8397;SDS011;4236;54.504;9.588;2022-12-18T14:11:00;33.70;;;31.00;;
8397;SDS011;4236;54.504;9.588;2022-12-18T14:13:31;34.07;;;31.77;;
8397;SDS011;4236;54.504;9.588;2022-12-18T14:16:01;33.97;;;31.63;;
8397;SDS011;4236;54.504;9.588;2022-12-18T14:18:33;33.83;;;31.33;;
8397;SDS011;4236;54.504;9.588;2022-12-18T14:21:17;33.43;;;31.03;;
8397;SDS011;4236;54.504;9.588;2022-12-18T14:23:48;33.03;;;30.50;;
8397;SDS011;4236;54.504;9.588;2022-12-18T14:26:20;34.63;;;32.03;;
8397;SDS011;4236;54.504;9.588;2022-12-18T14:28:50;33.07;;;30.77;;
8397;SDS011;4236;54.504;9.588;2022-12-18T14:31:20;34.90;;;32.33;;
8397;SDS011;4236;54.504;9.588;2022-12-18T14:33:49;32.67;;;30.27;;
8397;SDS011;4236;54.504;9.588;2022-12-18T14:36:19;32.93;;;30.77;;
8397;SDS011;4236;54.504;9.588;2022-12-18T14:38:49;33.40;;;30.90;;
8397;SDS011;4236;54.504;9.588;2022-12-18T14:41:20;34.27;;;31.80;;
8397;SDS011;4236;54.504;9.588;2022-12-18T14:43:49;32.63;;;30.23;;
8397;SDS011;4236;54.504;9.588;2022-12-18T14:46:27;33.37;;;30.83;;
8397;SDS011;4236;54.504;9.588;2022-12-18T14:48:57;34.50;;;32.10;;
8397;SDS011;4236;54.504;9.588;2022-12-18T14:51:28;33.50;;;31.43;;
8397;SDS011;4236;54.504;9.588;2022-12-18T14:53:58;31.67;;;29.57;;
8397;SDS011;4236;54.504;9.588;2022-12-18T14:56:27;32.90;;;30.67;;
8397;SDS011;4236;54.504;9.588;2022-12-18T14:58:57;32.97;;;30.40;;
8397;SDS011;4236;54.504;9.588;2022-12-18T15:01:28;33.03;;;30.00;;
8397;SDS011;4236;54.504;9.588;2022-12-18T15:03:59;33.67;;;31.17;;
8397;SDS011;4236;54.504;9.588;2022-12-18T15:06:33;33.80;;;30.80;;
8397;SDS011;4236;54.504;9.588;2022-12-18T15:09:03;32.40;;;30.23;;
8397;SDS011;4236;54.504;9.588;2022-12-18T15:11:43;33.60;;;31.17;;
8397;SDS011;4236;54.504;9.588;2022-12-18T15:14:22;32.13;;;29.53;;
8397;SDS011;4236;54.504;9.588;2022-12-18T15:16:52;30.60;;;28.10;;
8397;SDS011;4236;54.504;9.588;2022-12-18T15:19:22;31.50;;;29.00;;
8397;SDS011;4236;54.504;9.588;2022-12-18T15:21:57;32.10;;;29.70;;
8397;SDS011;4236;54.504;9.588;2022-12-18T15:24:31;32.37;;;29.97;;
8397;SDS011;4236;54.504;9.588;2022-12-18T15:27:00;32.90;;;30.50;;